Aeroporto :
LOGIN :

Iscrizione | Disclaimer

   EN    FR    IT 

 










Sommario :    VFR   VFR Marginale   IFR   IFR Intensivo   IFR Molto Intensivo
Visibilità : 
Base nubi : 
>= 8 km
>= 3000ft
5 / 8 km
1000 / 3000 ft
1500m / 5 km
500 / 1000 ft
800 / 1500m
200 / 500 ft
< 800m
< 200 ft
Simboli :   Temporali  Nebbia  Neve Forte  Precipitazioni Forti  Vento > 20 kt
SIGMETs :   Varie  Temporali  Ghiacco  Turbolenza  Onda orograficha  Ceneri Vulcaniche







- Altitudine del aeroporto : -11 ft
- Codice IATA : AMS


EHAM - Amsterdam Schiphol

ULTIMO METAR :
  • 211025Z 27012KT 230V310 9999 FEW030 21/12 Q1020 NOSIG

METARs OBSOLETI :
  • 210955Z 26011KT 230V300 9999 FEW028 20/12 Q1020 NOSIG
  • 210925Z 27012KT 9999 FEW027 20/12 Q1020 NOSIG
  • 210855Z 27011KT 230V300 9999 FEW025 20/12 Q1020 NOSIG
  • 210825Z 26010KT 220V300 9999 FEW020 20/12 Q1019 NOSIG
  • 210755Z 26010KT 230V290 9999 FEW017 19/12 Q1019 NOSIG
  • 210725Z 27012KT 9999 FEW017 SCT045 19/13 Q1018 NOSIG

TAF TAF EHAM
Valido dal 21 a 06 ore il 22 a 12 ore UTC


210433Z 2106/2212 27010KT 9999 SCT025
BECMG 2117/2120 20006KT
BECMG 2206/2209 24015KT
Nessun NOTAM noto per questo aeroporto.



MetMap, La meteo Aeronautica in un colpo d'occhio ! - Copyright ORBIFLY Dicembre 2007 - Disclaimer

ORBIFLY MET'MAP TEAM :

Programmazione e sviluppo : Alexandra Zaïnal
Concezione e sviluppo : Baudouin d'Aumeries
Co-Programmazione e sviluppo : Marc-Olivier Méhu
Supporto tecnico e logistico : Manuel Goepfert
Aiuto per la traduzione : Arnaldo La Scala

Contatto : metmap@orbifly.com




FONTI E CREDITI :

   NOAA